Time;durP1;ratioP1;P1;durP2;ratioP2;P2;SDS_P1;SDS_P2;PMS_P1;PMS_P2;Temp;Humidity;BMP_temperature;BMP_pressure;BME280_temperature;BME280_humidity;BME280_pressure;Samples;Min_cycle;Max_cycle;Signal;HPM_P1;HPM_P2
2021/09/15 00:01:06;;;;;;;7.68;7.00;;;;;;;20.83;66.96;101222.00;5040400;27;102720;-83
2021/09/15 00:03:37;;;;;;;7.55;6.85;;;;;;;20.82;67.03;101220.41;5041871;27;103440;-82
2021/09/15 00:06:05;;;;;;;8.15;7.35;;;;;;;20.82;66.91;101223.16;5036580;27;102597;-82
2021/09/15 00:08:32;;;;;;;8.40;7.70;;;;;;;20.83;66.94;101227.53;5042906;27;102498;-82
2021/09/15 00:10:59;;;;;;;7.75;6.95;;;;;;;20.83;67.02;101226.72;5051017;27;102710;-88
2021/09/15 00:13:25;;;;;;;7.88;7.18;;;;;;;20.83;66.96;101232.28;5038274;27;104378;-83
2021/09/15 00:15:57;;;;;;;7.75;7.05;;;;;;;20.82;66.85;101225.94;5019178;27;102651;-82
2021/09/15 00:18:26;;;;;;;8.45;7.15;;;;;;;20.82;66.96;101225.94;5042388;27;102902;-82
2021/09/15 00:20:54;;;;;;;8.07;7.28;;;;;;;20.81;66.68;101221.53;5043844;27;102440;-82
2021/09/15 00:23:20;;;;;;;7.53;6.82;;;;;;;20.83;67.13;101222.00;5031238;27;104122;-83
2021/09/15 00:25:48;;;;;;;7.45;6.75;;;;;;;20.82;67.08;101217.63;5038540;27;102251;-83
2021/09/15 00:28:14;;;;;;;7.53;6.82;;;;;;;20.82;66.94;101214.88;5038499;27;102646;-83
2021/09/15 00:30:41;;;;;;;8.20;7.40;;;;;;;20.83;66.88;101207.38;5035279;27;102392;-82
2021/09/15 00:33:08;;;;;;;7.82;7.03;;;;;;;20.81;67.01;101213.25;5045113;27;102722;-88
2021/09/15 00:35:35;;;;;;;7.78;7.07;;;;;;;20.81;66.80;101215.19;5029820;27;102200;-88
2021/09/15 00:38:02;;;;;;;8.80;7.20;;;;;;;20.82;66.95;101220.41;5039993;27;102233;-88
2021/09/15 00:40:29;;;;;;;7.60;6.75;;;;;;;20.81;66.98;101221.53;5039544;27;102576;-88
2021/09/15 00:42:57;;;;;;;7.70;7.00;;;;;;;20.81;66.89;101218.78;5024959;27;102914;-88
2021/09/15 00:45:23;;;;;;;8.00;7.20;;;;;;;20.81;67.01;101212.44;5046215;27;102289;-88
2021/09/15 00:47:50;;;;;;;8.18;7.38;;;;;;;20.80;66.91;101211.59;5041325;27;102446;-87
2021/09/15 00:50:16;;;;;;;7.63;6.93;;;;;;;20.81;67.25;101210.47;5035033;27;102325;-88
2021/09/15 00:52:44;;;;;;;7.90;7.10;;;;;;;20.81;66.95;101220.72;5031150;27;102667;-88
2021/09/15 00:55:11;;;;;;;7.70;7.00;;;;;;;20.81;67.05;101218.78;5046695;27;102381;-88
2021/09/15 00:57:38;;;;;;;7.28;6.32;;;;;;;20.80;67.16;101221.84;5041795;27;102611;-88
2021/09/15 01:00:06;;;;;;;8.75;7.88;;;;;;;20.80;67.08;101222.66;5046105;27;102588;-88
2021/09/15 01:02:32;;;;;;;8.82;7.22;;;;;;;20.81;67.10;101218.78;5046774;27;103079;-88
2021/09/15 01:04:59;;;;;;;8.10;7.30;;;;;;;20.81;67.33;101217.97;5047700;27;102388;-88
2021/09/15 01:07:26;;;;;;;8.23;7.53;;;;;;;20.80;67.00;101214.38;5020709;27;102702;-88
2021/09/15 01:09:54;;;;;;;8.18;7.38;;;;;;;20.80;66.89;101225.44;5032615;27;102544;-88
2021/09/15 01:12:21;;;;;;;8.60;7.20;;;;;;;20.80;67.15;101228.19;5034812;27;102144;-82
2021/09/15 01:14:48;;;;;;;7.50;6.80;;;;;;;20.81;67.01;101229.84;5046148;27;102484;-82
2021/09/15 01:17:14;;;;;;;7.47;6.78;;;;;;;20.81;67.09;101220.72;5033528;27;102709;-83
2021/09/15 01:19:41;;;;;;;8.68;7.82;;;;;;;20.80;66.92;101224.63;5044807;27;102057;-83
2021/09/15 01:22:09;;;;;;;7.88;7.07;;;;;;;20.80;66.98;101216.31;5033676;27;102782;-83
2021/09/15 01:24:36;;;;;;;8.52;7.40;;;;;;;20.79;66.98;101215.50;5046850;27;102441;-83
2021/09/15 01:27:23;;;;;;;7.88;7.05;;;;;;;20.80;66.87;101225.44;5035002;27;102092;-88
2021/09/15 01:29:50;;;;;;;8.20;7.40;;;;;;;20.79;67.09;101226.59;5021291;27;102784;-88
2021/09/15 01:32:16;;;;;;;7.88;7.07;;;;;;;20.81;67.11;101223.50;5038021;27;103238;-88
2021/09/15 01:34:45;;;;;;;7.78;6.68;;;;;;;20.80;66.98;101224.63;5038452;27;102170;-88
2021/09/15 01:37:14;;;;;;;7.40;6.68;;;;;;;20.79;67.12;101234.88;5016867;27;102310;-88
2021/09/15 01:39:40;;;;;;;7.97;7.18;;;;;;;20.80;66.94;101233.72;5038979;27;102458;-88
2021/09/15 01:42:09;;;;;;;8.30;7.53;;;;;;;20.79;67.01;101232.13;5030939;27;105417;-88
2021/09/15 01:44:37;;;;;;;;;;;;;;;20.80;67.26;101233.72;5048035;27;102103;-88
2021/09/15 01:47:05;;;;;;;7.53;6.77;;;;;;;20.80;67.21;101238.44;5017422;27;102170;-89
2021/09/15 01:49:34;;;;;;;8.00;7.28;;;;;;;20.80;67.18;101235.69;5037419;27;102978;-83
2021/09/15 01:52:03;;;;;;;7.28;6.50;;;;;;;20.80;67.19;101236.50;5019234;28;107123;-83
2021/09/15 01:54:32;;;;;;;7.70;6.93;;;;;;;20.80;67.13;101238.44;5017523;28;101933;-82
2021/09/15 01:56:58;;;;;;;7.65;6.90;;;;;;;20.78;67.11;101233.25;5016334;28;102320;-82
2021/09/15 01:59:27;;;;;;;7.40;6.65;;;;;;;20.79;67.05;101231.31;5016216;28;102506;-82
2021/09/15 02:01:54;;;;;;;7.88;7.18;;;;;;;20.79;67.09;101231.31;5027943;27;103561;-82
2021/09/15 02:04:21;;;;;;;7.40;6.75;;;;;;;20.80;67.26;101238.44;5044231;27;102677;-82
2021/09/15 02:06:48;;;;;;;7.63;6.93;;;;;;;20.79;67.21;101236.84;5040874;27;102423;-81
2021/09/15 02:09:16;;;;;;;8.30;7.50;;;;;;;20.79;67.00;101245.94;5042909;27;102187;-88
2021/09/15 02:11:45;;;;;;;7.90;7.10;;;;;;;20.79;67.05;101247.91;5037376;27;102806;-88
2021/09/15 02:14:13;;;;;;;7.32;6.50;;;;;;;20.79;67.20;101247.91;5036565;27;102315;-88
2021/09/15 02:16:41;;;;;;;7.82;7.13;;;;;;;20.79;67.08;101253.44;5041882;27;102280;-88
2021/09/15 02:19:08;;;;;;;7.60;6.90;;;;;;;20.78;67.03;101252.63;5029644;27;102295;-88
2021/09/15 02:21:35;;;;;;;8.35;6.95;;;;;;;20.79;67.20;101253.44;5039468;27;102789;-88
2021/09/15 02:24:02;;;;;;;7.63;6.88;;;;;;;20.78;67.13;101257.34;5013320;28;102147;-87
2021/09/15 02:26:34;;;;;;;8.15;7.38;;;;;;;20.78;67.42;101263.69;4998587;28;102661;-88
2021/09/15 02:29:03;;;;;;;7.65;6.65;;;;;;;20.78;67.13;101258.16;5026587;27;102561;-82
2021/09/15 02:31:31;;;;;;;7.45;6.75;;;;;;;20.78;67.32;101263.69;5041553;27;102766;-82
2021/09/15 02:33:59;;;;;;;7.20;6.60;;;;;;;20.78;67.32;101268.41;5024182;27;102118;-83
2021/09/15 02:36:26;;;;;;;7.95;6.70;;;;;;;20.77;67.25;101264.84;5051988;27;102721;-83
2021/09/15 02:38:54;;;;;;;7.90;7.10;;;;;;;20.78;67.18;101271.19;5023769;28;102253;-82
2021/09/15 02:41:20;;;;;;;6.60;6.00;;;;;;;20.78;67.24;101271.19;5047076;27;103407;-83
2021/09/15 02:43:47;;;;;;;7.50;6.75;;;;;;;20.78;67.31;101271.19;5024463;27;102445;-88
2021/09/15 02:46:15;;;;;;;7.13;6.43;;;;;;;20.77;67.20;101273.13;5016420;28;102864;-83
2021/09/15 02:48:43;;;;;;;7.82;7.13;;;;;;;20.77;67.10;101270.38;5029019;27;102513;-83
2021/09/15 02:51:10;;;;;;;8.00;7.30;;;;;;;20.77;67.15;101275.91;5047863;27;102686;-83
2021/09/15 02:53:36;;;;;;;7.05;6.43;;;;;;;20.77;66.99;101275.91;5054149;27;102172;-82
2021/09/15 02:56:03;;;;;;;8.40;7.00;;;;;;;20.76;67.07;101277.03;5044127;27;103187;-82
2021/09/15 02:58:32;;;;;;;6.60;6.00;;;;;;;20.76;67.18;101270.69;5031182;27;103102;-82
2021/09/15 03:01:00;;;;;;;7.40;6.72;;;;;;;20.77;66.93;101284.19;5035076;27;104160;-83
2021/09/15 03:03:28;;;;;;;7.28;6.60;;;;;;;20.76;67.75;101285.31;5019010;27;102143;-83
2021/09/15 03:05:54;;;;;;;8.13;7.07;;;;;;;20.76;67.13;101282.56;5037486;27;102209;-88
2021/09/15 03:08:23;;;;;;;8.10;7.30;;;;;;;20.76;67.07;101288.09;5018722;27;103164;-88
2021/09/15 03:10:50;;;;;;;8.05;7.25;;;;;;;20.77;67.21;101289.72;5028769;27;102673;-89
2021/09/15 03:13:17;;;;;;;8.40;7.60;;;;;;;20.76;67.13;101293.63;5024982;28;102306;-89
2021/09/15 03:15:45;;;;;;;19.25;13.68;;;;;;;20.77;67.08;101302.72;5045967;27;102310;-88
2021/09/15 03:18:12;;;;;;;20.98;14.32;;;;;;;20.77;67.12;101299.94;5036441;27;102517;-88
2021/09/15 03:20:42;;;;;;;21.10;14.18;;;;;;;20.76;67.11;101292.81;5037044;27;102675;-88
2021/09/15 03:23:09;;;;;;;25.75;17.15;;;;;;;20.75;67.14;101300.28;5049900;27;102072;-88
2021/09/15 03:25:37;;;;;;;21.70;16.00;;;;;;;20.76;67.15;101299.16;5044139;27;102091;-82
2021/09/15 03:28:03;;;;;;;18.63;14.82;;;;;;;20.75;67.21;101316.88;5034304;27;102651;-82
2021/09/15 03:30:30;;;;;;;17.40;13.52;;;;;;;20.75;67.06;101314.13;5027135;27;102820;-82
2021/09/15 03:32:57;;;;;;;18.05;11.73;;;;;;;20.75;67.12;101319.66;5029014;27;102482;-82
2021/09/15 03:35:24;;;;;;;16.05;12.45;;;;;;;20.75;67.15;101314.13;5018003;28;102625;-82
2021/09/15 03:37:53;;;;;;;16.00;11.15;;;;;;;20.74;67.26;101312.50;5026576;27;102593;-82
2021/09/15 03:40:20;;;;;;;13.55;10.63;;;;;;;20.76;67.22;101318.50;5027569;27;104008;-82
2021/09/15 03:42:47;;;;;;;16.48;11.73;;;;;;;20.75;67.23;101319.66;5029667;27;102913;-87
2021/09/15 03:45:13;;;;;;;12.43;10.65;;;;;;;20.75;67.22;101327.16;5014673;27;102065;-88
2021/09/15 03:47:53;;;;;;;12.60;10.70;;;;;;;20.75;67.25;101327.94;5016284;27;103472;-88
2021/09/15 03:50:20;;;;;;;12.05;10.52;;;;;;;20.75;67.29;101327.16;5014470;28;102774;-88
2021/09/15 03:52:47;;;;;;;13.38;11.20;;;;;;;20.75;67.24;101330.72;5024328;27;102552;-88
2021/09/15 03:55:16;;;;;;;12.77;10.40;;;;;;;20.74;67.23;101329.09;5027919;27;102115;-88
2021/09/15 03:57:44;;;;;;;12.52;10.52;;;;;;;20.76;67.16;101337.06;5042270;27;102331;-88
2021/09/15 04:00:12;;;;;;;15.52;10.80;;;;;;;20.74;67.14;101331.88;5036172;27;103942;-83
2021/09/15 04:02:38;;;;;;;13.85;10.48;;;;;;;20.74;67.10;101340.16;5033270;27;102195;-88
2021/09/15 04:05:08;;;;;;;13.77;10.57;;;;;;;20.74;67.33;101345.69;5038508;27;102880;-88
2021/09/15 04:07:34;;;;;;;12.70;10.20;;;;;;;20.74;67.16;101337.41;5048946;27;102480;-88
2021/09/15 04:10:01;;;;;;;11.50;9.75;;;;;;;20.74;67.20;101334.63;5043228;27;102499;-88
2021/09/15 04:12:30;;;;;;;13.65;10.10;;;;;;;20.74;67.14;101340.16;5040376;27;102419;-88
2021/09/15 04:14:57;;;;;;;12.70;9.88;;;;;;;20.76;67.14;101348.13;5030918;27;102431;-89
2021/09/15 04:17:23;;;;;;;12.88;9.27;;;;;;;20.74;67.27;101342.13;5044671;27;102688;-89
2021/09/15 04:19:52;;;;;;;11.20;9.38;;;;;;;20.74;67.14;101333.81;5041165;27;105027;-88
2021/09/15 04:22:20;;;;;;;12.63;9.70;;;;;;;20.74;67.28;101342.94;5032139;27;102246;-88
2021/09/15 04:32:49;;;;;;;11.15;9.35;;;;;;;20.73;67.24;101344.03;5034825;27;102593;-88
2021/09/15 04:35:17;;;;;;;10.63;9.48;;;;;;;20.74;67.37;101345.69;5047805;27;102073;-88
2021/09/15 04:37:44;;;;;;;10.98;8.95;;;;;;;20.73;67.19;101355.13;5049249;27;102608;-88
2021/09/15 04:40:12;;;;;;;10.43;9.35;;;;;;;20.73;67.20;101349.59;5041349;27;102325;-87
2021/09/15 04:42:38;;;;;;;11.05;8.70;;;;;;;20.74;67.25;101350.41;5048334;27;102791;-88
2021/09/15 04:45:08;;;;;;;10.00;8.45;;;;;;;20.73;67.19;101368.94;5046867;27;102380;-88
2021/09/15 04:47:35;;;;;;;10.45;8.70;;;;;;;20.74;67.17;101355.94;5047095;27;102108;-88
2021/09/15 04:50:04;;;;;;;10.60;8.25;;;;;;;20.74;67.18;101362.28;5041442;27;102788;-88
2021/09/15 04:52:31;;;;;;;9.67;8.50;;;;;;;20.74;67.21;101367.81;5034791;27;102390;-88
2021/09/15 04:54:57;;;;;;;9.73;8.35;;;;;;;20.73;67.18;101371.72;5030954;27;102299;-87
2021/09/15 04:57:24;;;;;;;10.05;8.73;;;;;;;20.74;67.48;101367.03;5049278;27;102491;-83
2021/09/15 04:59:51;;;;;;;9.88;8.63;;;;;;;20.73;67.31;101371.72;5039873;27;102731;-84
2021/09/15 05:02:19;;;;;;;9.95;8.15;;;;;;;20.72;67.29;101375.63;5046431;27;103354;-82
2021/09/15 05:04:46;;;;;;;11.07;8.73;;;;;;;20.73;67.37;101377.25;5048905;27;102736;-83
2021/09/15 05:07:13;;;;;;;10.43;9.02;;;;;;;20.73;67.20;101371.72;5040409;27;102358;-83
2021/09/15 05:09:39;;;;;;;9.30;7.88;;;;;;;20.73;67.37;101382.78;5049156;27;104112;-83
2021/09/15 05:12:06;;;;;;;11.45;8.90;;;;;;;20.73;67.30;101382.78;5052462;27;102336;-83
2021/09/15 05:14:34;;;;;;;10.02;8.35;;;;;;;20.74;67.18;101383.63;5035929;27;102064;-83
2021/09/15 05:17:03;;;;;;;8.32;7.40;;;;;;;20.72;67.18;101386.69;5051557;27;102867;-82
2021/09/15 05:19:32;;;;;;;9.38;8.13;;;;;;;20.73;67.17;101393.84;5047548;27;102685;-83
2021/09/15 05:21:58;;;;;;;8.02;7.22;;;;;;;20.73;66.99;101393.03;5039499;27;102621;-83
2021/09/15 05:24:27;;;;;;;8.63;7.38;;;;;;;20.74;66.94;101400.22;5016240;27;102546;-83
2021/09/15 05:26:54;;;;;;;9.35;7.78;;;;;;;20.73;67.24;101399.38;5051336;27;102777;-83
2021/09/15 05:29:20;;;;;;;10.00;8.18;;;;;;;20.73;66.96;101399.38;5048576;27;104051;-83
2021/09/15 05:31:47;;;;;;;8.98;8.07;;;;;;;20.74;67.09;101401.03;5036250;27;102597;-83
2021/09/15 05:34:14;;;;;;;8.85;7.50;;;;;;;20.75;66.99;101405.41;5047388;27;102378;-83
2021/09/15 05:36:42;;;;;;;9.88;8.57;;;;;;;20.75;66.88;101408.16;5035511;27;102464;-83
2021/09/15 05:39:09;;;;;;;11.13;8.93;;;;;;;20.75;66.73;101413.69;5043520;27;106571;-88
2021/09/15 05:41:36;;;;;;;9.30;7.82;;;;;;;20.76;66.76;101420.03;5045772;27;102397;-87
2021/09/15 05:44:03;;;;;;;11.25;8.32;;;;;;;20.76;66.77;101415.31;5041901;27;102554;-88
2021/09/15 05:46:29;;;;;;;9.25;8.27;;;;;;;20.77;66.72;101416.13;5042769;27;102536;-88
2021/09/15 05:48:56;;;;;;;12.75;7.93;;;;;;;20.77;66.85;101419.75;5052476;27;103456;-88
2021/09/15 05:51:22;;;;;;;8.25;7.35;;;;;;;20.77;66.77;101422.50;5047793;27;103872;-87
2021/09/15 05:53:52;;;;;;;8.88;7.95;;;;;;;20.77;66.81;101425.28;5038876;27;102446;-88
2021/09/15 05:56:19;;;;;;;9.05;7.97;;;;;;;20.78;66.81;101426.88;5050779;27;102594;-83
2021/09/15 05:58:47;;;;;;;10.35;7.60;;;;;;;20.78;66.82;101426.88;5052182;27;102766;-88
2021/09/15 06:01:13;;;;;;;10.10;7.78;;;;;;;20.78;66.75;101428.84;5038072;27;102428;-87
2021/09/15 06:03:42;;;;;;;10.00;7.60;;;;;;;20.79;66.69;101430.47;5036663;27;102195;-87
2021/09/15 06:06:10;;;;;;;9.68;7.60;;;;;;;20.78;66.71;101426.88;5043238;27;102764;-87
2021/09/15 06:08:36;;;;;;;8.88;7.97;;;;;;;20.78;66.47;101435.19;5040209;27;104306;-88
2021/09/15 06:11:05;;;;;;;12.18;8.80;;;;;;;20.79;66.84;101436.81;5043860;27;102880;-87
2021/09/15 06:13:34;;;;;;;10.65;7.78;;;;;;;20.79;66.72;101431.28;5051409;27;102767;-87
2021/09/15 06:16:04;;;;;;;8.35;7.55;;;;;;;20.79;66.59;101436.81;5032768;27;102180;-88
2021/09/15 06:18:31;;;;;;;10.15;8.40;;;;;;;20.80;66.69;101440.38;5031582;27;103298;-88
2021/09/15 06:20:58;;;;;;;8.93;7.75;;;;;;;20.79;66.53;101436.81;5010850;28;102131;-88
2021/09/15 06:23:29;;;;;;;8.57;7.70;;;;;;;20.81;66.55;101437.31;5029905;28;102516;-88
2021/09/15 06:25:56;;;;;;;13.15;8.93;;;;;;;20.80;66.49;101435.66;5031024;27;102121;-88
2021/09/15 06:28:25;;;;;;;10.63;7.93;;;;;;;20.80;66.46;101427.38;5020901;28;102852;-88
2021/09/15 06:30:52;;;;;;;11.77;8.18;;;;;;;20.82;66.46;101427.06;4999730;28;102390;-87
2021/09/15 06:33:19;;;;;;;12.15;8.45;;;;;;;20.82;66.36;101432.59;5030037;28;102634;-87
2021/09/15 06:35:47;;;;;;;10.25;8.13;;;;;;;20.82;66.32;101436.16;5031508;27;102264;-87
2021/09/15 06:38:14;;;;;;;9.40;7.32;;;;;;;20.83;66.25;101442.50;5014932;28;102744;-88
2021/09/15 06:40:41;;;;;;;8.77;7.88;;;;;;;20.84;66.35;101433.06;5024225;28;102417;-89
2021/09/15 06:43:07;;;;;;;11.68;7.38;;;;;;;20.84;66.41;101433.91;5006281;28;102599;-88
2021/09/15 06:45:36;;;;;;;9.32;8.07;;;;;;;20.84;66.21;101428.38;5023199;28;102889;-88
2021/09/15 06:48:03;;;;;;;10.93;7.88;;;;;;;20.84;66.15;101431.13;5022322;27;103244;-89
2021/09/15 06:50:30;;;;;;;9.82;7.90;;;;;;;20.85;66.37;101432.75;5027846;28;102452;-88
2021/09/15 06:53:13;;;;;;;8.70;7.03;;;;;;;20.84;66.11;101433.91;5002112;27;103146;-88
2021/09/15 06:55:41;;;;;;;8.98;7.20;;;;;;;20.86;66.16;101428.84;5013439;28;102416;-83
2021/09/15 06:58:07;;;;;;;9.60;6.88;;;;;;;20.86;66.07;101425.28;5029819;28;102707;-83
2021/09/15 07:00:37;;;;;;;6.90;6.20;;;;;;;20.87;65.80;101427.69;5031842;28;102694;-83
2021/09/15 07:03:03;;;;;;;9.93;6.78;;;;;;;20.86;65.76;101437.16;5029655;28;102417;-82
2021/09/15 07:05:31;;;;;;;7.57;6.78;;;;;;;20.88;65.67;101432.13;5016592;28;102626;-83
2021/09/15 07:07:58;;;;;;;7.82;6.63;;;;;;;20.88;65.85;101434.88;5030162;28;103959;-83
2021/09/15 07:10:25;;;;;;;7.75;6.82;;;;;;;20.90;65.47;101442.03;5029697;28;102460;-82
2021/09/15 07:12:51;;;;;;;7.85;6.95;;;;;;;20.90;65.74;101430.97;5030529;28;102487;-87
2021/09/15 07:15:18;;;;;;;8.15;7.05;;;;;;;20.91;65.61;101443.66;5031181;28;102321;-83
2021/09/15 07:17:46;;;;;;;8.73;7.03;;;;;;;20.91;65.53;101440.88;5031374;27;104139;-83
2021/09/15 07:20:16;;;;;;;8.48;7.38;;;;;;;20.92;65.76;101445.31;5039818;27;102787;-83
2021/09/15 07:22:45;;;;;;;8.10;6.65;;;;;;;20.92;65.61;101443.34;5051943;27;102295;-83
2021/09/15 07:25:13;;;;;;;13.52;7.10;;;;;;;20.93;65.43;101441.41;5043802;27;102316;-83
2021/09/15 07:27:41;;;;;;;9.52;7.45;;;;;;;20.96;65.45;101435.22;5044767;27;102776;-83
2021/09/15 07:30:10;;;;;;;8.57;6.93;;;;;;;20.96;65.64;101443.53;5038387;27;102802;-87
2021/09/15 07:32:37;;;;;;;9.95;7.90;;;;;;;20.95;65.46;101434.38;5042288;27;102663;-87
2021/09/15 07:35:09;;;;;;;9.98;6.75;;;;;;;20.95;65.39;101434.38;5020987;28;102333;-87
2021/09/15 07:37:36;;;;;;;10.32;7.43;;;;;;;20.97;65.39;101439.59;5044635;27;108089;-88
2021/09/15 07:40:04;;;;;;;8.43;6.60;;;;;;;20.98;65.45;101452.28;5049037;27;102713;-89
2021/09/15 07:42:30;;;;;;;9.95;7.20;;;;;;;20.99;65.34;101435.38;5033328;27;102546;-87
2021/09/15 07:44:57;;;;;;;7.35;6.05;;;;;;;21.00;65.19;101444.50;5032502;27;102412;-87
2021/09/15 07:47:24;;;;;;;9.63;7.20;;;;;;;21.00;65.35;101442.53;5040240;27;102733;-88
2021/09/15 07:49:51;;;;;;;7.53;6.72;;;;;;;21.01;65.44;101437.81;5038034;27;102608;-87
2021/09/15 07:52:19;;;;;;;7.05;6.28;;;;;;;21.02;65.01;101436.66;5045388;27;105445;-87
2021/09/15 07:54:46;;;;;;;7.97;6.75;;;;;;;21.02;65.22;101431.13;5040468;27;102305;-87
2021/09/15 07:57:13;;;;;;;7.60;6.45;;;;;;;21.03;65.14;101436.34;5038664;27;103905;-87
2021/09/15 07:59:40;;;;;;;8.27;6.47;;;;;;;21.04;65.10;101434.41;5047900;27;102587;-88
2021/09/15 08:02:07;;;;;;;9.13;6.63;;;;;;;21.03;65.07;101430.00;5042035;27;102250;-87
2021/09/15 08:04:34;;;;;;;8.93;6.78;;;;;;;21.04;65.15;101437.97;5031171;27;102417;-87
2021/09/15 08:07:00;;;;;;;10.05;6.82;;;;;;;21.06;65.11;101429.34;5045054;27;102695;-88
2021/09/15 08:09:29;;;;;;;9.20;6.85;;;;;;;21.07;65.04;101431.00;5048903;27;102404;-88
2021/09/15 08:11:55;;;;;;;9.48;6.30;;;;;;;21.08;64.95;101432.59;5046802;27;102160;-87
2021/09/15 08:14:23;;;;;;;8.35;6.93;;;;;;;21.09;65.07;101431.47;5049301;27;102511;-86
2021/09/15 08:16:49;;;;;;;8.63;6.72;;;;;;;21.10;65.04;101435.88;5041985;27;103848;-87
2021/09/15 08:19:16;;;;;;;8.25;6.60;;;;;;;21.09;65.01;101431.47;5043108;27;102136;-87
2021/09/15 08:21:43;;;;;;;7.55;6.50;;;;;;;21.11;65.04;101429.19;5047811;27;102605;-87
2021/09/15 08:24:12;;;;;;;7.05;6.22;;;;;;;21.12;65.12;101433.59;5032713;27;102889;-88
2021/09/15 08:26:40;;;;;;;6.55;5.90;;;;;;;21.12;64.88;101434.41;5042435;27;103403;-88
2021/09/15 08:29:07;;;;;;;7.57;6.75;;;;;;;21.14;65.03;101438.81;5047065;27;102099;-89
2021/09/15 08:31:35;;;;;;;12.30;6.60;;;;;;;21.14;64.91;101431.31;5030827;27;102481;-83
2021/09/15 08:34:02;;;;;;;8.07;6.97;;;;;;;21.16;64.92;101428.22;5050522;27;103207;-83
2021/09/15 08:36:29;;;;;;;8.57;6.47;;;;;;;21.16;64.87;101428.22;5030373;28;103899;-83
2021/09/15 08:38:56;;;;;;;8.82;6.18;;;;;;;21.16;64.89;101423.47;5036766;27;102754;-83
2021/09/15 08:41:22;;;;;;;6.85;5.75;;;;;;;21.16;64.91;101429.03;5045666;27;102747;-83
2021/09/15 08:43:51;;;;;;;10.77;6.18;;;;;;;21.17;64.98;101427.91;5051910;27;102735;-83
2021/09/15 08:46:20;;;;;;;7.35;6.07;;;;;;;21.18;64.74;101426.75;5044249;27;102954;-83
2021/09/15 08:48:47;;;;;;;6.57;5.68;;;;;;;21.19;64.77;101428.38;5053625;27;102356;-87
2021/09/15 08:51:16;;;;;;;6.57;5.93;;;;;;;21.20;64.94;101430.00;5048922;27;103478;-89
2021/09/15 08:53:44;;;;;;;7.13;6.43;;;;;;;21.20;64.96;101430.00;5038249;27;102261;-88
2021/09/15 08:56:12;;;;;;;7.47;6.50;;;;;;;21.20;64.90;101432.75;5038890;27;103519;-87
2021/09/15 08:58:39;;;;;;;6.93;6.13;;;;;;;21.20;64.72;101438.28;5048619;27;102588;-89
2021/09/15 09:01:14;;;;;;;6.68;5.80;;;;;;;21.21;64.71;101426.09;5046728;27;102532;-88
2021/09/15 09:03:41;;;;;;;6.13;5.53;;;;;;;21.22;64.90;101438.78;5040495;27;102435;-88
2021/09/15 09:06:11;;;;;;;7.55;6.00;;;;;;;21.22;64.83;101432.44;5039537;27;102666;-87
2021/09/15 09:08:42;;;;;;;7.30;5.87;;;;;;;21.22;64.94;101430.50;5045549;27;102639;-87
2021/09/15 09:11:09;;;;;;;6.38;5.65;;;;;;;21.22;64.91;101436.03;5038950;27;102207;-89
2021/09/15 09:13:47;;;;;;;7.10;5.75;;;;;;;21.22;64.79;101433.25;5046858;27;102231;-87
2021/09/15 09:16:18;;;;;;;6.57;5.45;;;;;;;21.24;64.89;101436.53;5037948;27;104007;-88
2021/09/15 09:18:58;;;;;;;6.55;5.47;;;;;;;21.24;65.02;101435.69;5035733;27;102547;-87
2021/09/15 09:21:26;;;;;;;7.43;6.28;;;;;;;21.24;64.72;101431.00;5037178;27;102163;-87
2021/09/15 09:23:59;;;;;;;7.15;6.00;;;;;;;21.25;64.81;101429.84;5048806;27;102363;-88
2021/09/15 09:26:50;;;;;;;8.27;5.82;;;;;;;21.25;64.70;101429.84;5047142;27;102746;-88
2021/09/15 09:29:19;;;;;;;8.32;6.07;;;;;;;21.25;64.81;101432.63;5035940;27;102244;-87
2021/09/15 09:32:04;;;;;;;6.20;5.60;;;;;;;21.27;64.78;101427.53;5049402;27;102541;-87
2021/09/15 09:34:41;;;;;;;7.18;5.50;;;;;;;21.27;64.76;101419.25;5048778;27;103198;-88
2021/09/15 09:37:09;;;;;;;6.55;5.65;;;;;;;21.27;64.82;101426.75;5046112;27;103873;-89
2021/09/15 09:39:39;;;;;;;8.45;6.90;;;;;;;21.27;64.67;101419.25;5017182;28;102513;-89
2021/09/15 09:42:28;;;;;;;7.10;6.40;;;;;;;21.26;64.74;101417.63;5035825;27;102337;-88
2021/09/15 09:45:09;;;;;;;6.38;5.75;;;;;;;21.27;64.49;101410.13;5042265;27;102728;-87
2021/09/15 09:47:38;;;;;;;8.25;5.97;;;;;;;21.27;64.45;101408.16;5038055;27;102713;-89
2021/09/15 09:50:06;;;;;;;;;;;;;;;21.28;64.54;101401.50;5040055;27;102150;-88
2021/09/15 09:52:50;;;;;;;6.70;6.10;;;;;;;21.27;64.27;101413.69;5047140;27;102187;-88
2021/09/15 09:55:18;;;;;;;6.40;5.43;;;;;;;21.29;64.62;101403.13;5040575;27;102323;-88
2021/09/15 09:57:48;;;;;;;7.20;6.18;;;;;;;21.28;64.53;101404.28;5038849;27;107947;-87
2021/09/15 10:00:16;;;;;;;6.50;5.97;;;;;;;21.27;64.60;101402.63;5052004;27;102506;-87
2021/09/15 10:02:44;;;;;;;6.50;5.68;;;;;;;21.28;64.79;101397.94;5049075;27;102194;-88
2021/09/15 10:05:13;;;;;;;8.05;6.00;;;;;;;21.28;64.58;101401.50;5039558;27;102884;-85
2021/09/15 10:07:41;;;;;;;6.57;5.90;;;;;;;21.28;64.56;101397.94;5040592;27;102812;-88
2021/09/15 10:10:10;;;;;;;7.40;6.55;;;;;;;21.28;64.35;101393.22;5042661;27;102381;-88
2021/09/15 10:12:38;;;;;;;7.60;5.88;;;;;;;21.28;64.70;101401.50;5047120;27;102437;-87
2021/09/15 10:15:07;;;;;;;6.57;5.97;;;;;;;21.28;64.56;101387.66;5051448;27;102595;-88
2021/09/15 10:17:37;;;;;;;6.70;6.05;;;;;;;21.28;64.67;101389.63;5031815;27;103759;-88
2021/09/15 10:20:08;;;;;;;8.30;6.45;;;;;;;21.27;64.52;101380.47;5045713;27;102305;-88
2021/09/15 10:22:43;;;;;;;6.68;6.00;;;;;;;21.28;64.55;101382.13;5043797;27;102365;-89
2021/09/15 10:25:10;;;;;;;7.82;6.43;;;;;;;21.29;64.41;101377.41;5048214;27;101933;-88
2021/09/15 10:27:58;;;;;;;6.85;6.15;;;;;;;21.29;64.55;101383.75;5046611;27;104108;-88
2021/09/15 10:30:44;;;;;;;6.43;5.82;;;;;;;21.29;64.42;101378.22;5042711;27;102183;-89
2021/09/15 10:33:42;;;;;;;7.05;6.30;;;;;;;21.29;64.44;101374.63;5038525;27;102476;-87
2021/09/15 10:36:35;;;;;;;8.10;5.85;;;;;;;21.28;64.48;101373.81;5035319;27;102905;-87
2021/09/15 10:39:03;;;;;;;6.55;5.95;;;;;;;21.28;64.61;101376.59;5042803;27;106624;-87
2021/09/15 10:41:38;;;;;;;6.88;6.10;;;;;;;21.29;64.47;101380.19;5046902;27;102833;-87
2021/09/15 10:44:06;;;;;;;6.40;5.80;;;;;;;21.29;64.49;101371.88;5050730;27;102404;-88
2021/09/15 10:46:33;;;;;;;7.32;6.22;;;;;;;21.28;64.48;101382.13;5036477;27;102130;-87
2021/09/15 10:49:32;;;;;;;6.88;6.18;;;;;;;21.28;64.58;101371.06;5036778;27;103959;-88
2021/09/15 10:52:26;;;;;;;6.10;5.50;;;;;;;21.28;64.57;101371.06;5044351;27;102410;-87
2021/09/15 10:54:55;;;;;;;7.30;5.97;;;;;;;21.27;64.55;101369.41;5047108;27;102663;-87
2021/09/15 10:57:33;;;;;;;6.55;5.88;;;;;;;21.28;64.54;101371.06;5050436;27;102744;-88
2021/09/15 11:00:03;;;;;;;7.90;7.20;;;;;;;21.28;64.59;101364.72;5037997;27;102941;-88
2021/09/15 11:02:31;;;;;;;6.25;5.65;;;;;;;21.27;64.77;101363.88;5040614;27;102755;-83
2021/09/15 11:04:59;;;;;;;7.60;6.63;;;;;;;21.27;64.73;101363.88;5044175;27;102069;-83
2021/09/15 11:07:58;;;;;;;6.87;6.20;;;;;;;21.27;64.86;101363.88;5041781;27;102777;-83
2021/09/15 11:10:42;;;;;;;6.78;6.18;;;;;;;21.27;64.63;101354.75;5042518;27;106719;-84
2021/09/15 11:13:11;;;;;;;6.72;6.07;;;;;;;21.25;64.57;101355.09;5038639;27;102574;-83
2021/09/15 11:15:39;;;;;;;;;;;;;;;21.27;64.82;101358.34;5035663;27;102314;-83
2021/09/15 11:18:14;;;;;;;7.75;6.78;;;;;;;21.25;64.75;101352.34;5052676;27;102255;-83
2021/09/15 11:20:41;;;;;;;6.95;6.30;;;;;;;21.26;64.73;101351.19;5039486;27;103933;-87
2021/09/15 11:23:11;;;;;;;6.93;6.30;;;;;;;21.25;64.88;101349.56;5049247;27;102582;-88
2021/09/15 11:25:37;;;;;;;6.88;6.28;;;;;;;21.25;64.94;101346.78;5041423;27;102332;-87
2021/09/15 11:28:08;;;;;;;7.45;6.72;;;;;;;21.24;64.83;101331.34;5049342;27;102376;-88
2021/09/15 11:30:36;;;;;;;8.40;6.32;;;;;;;21.25;64.90;101335.72;5043041;27;102739;-88